sensor_id;sensor_type;location;lat;lon;timestamp;P1;durP1;ratioP1;P2;durP2;ratioP2
3601;SDS011;1815;50.950;6.920;2023-04-25T00:01:31;6.40;;;2.70;;
3601;SDS011;1815;50.950;6.920;2023-04-25T00:04:01;5.68;;;3.25;;
3601;SDS011;1815;50.950;6.920;2023-04-25T00:06:27;7.80;;;3.42;;
3601;SDS011;1815;50.950;6.920;2023-04-25T00:08:54;5.43;;;3.35;;
3601;SDS011;1815;50.950;6.920;2023-04-25T00:11:21;4.47;;;2.85;;
3601;SDS011;1815;50.950;6.920;2023-04-25T00:13:47;9.90;;;3.85;;
3601;SDS011;1815;50.950;6.920;2023-04-25T00:16:14;6.20;;;3.10;;
3601;SDS011;1815;50.950;6.920;2023-04-25T00:18:41;6.30;;;2.90;;
3601;SDS011;1815;50.950;6.920;2023-04-25T00:21:07;5.50;;;2.50;;
3601;SDS011;1815;50.950;6.920;2023-04-25T00:23:33;9.15;;;4.05;;
3601;SDS011;1815;50.950;6.920;2023-04-25T00:26:01;5.90;;;2.70;;
3601;SDS011;1815;50.950;6.920;2023-04-25T00:28:27;4.20;;;2.60;;
3601;SDS011;1815;50.950;6.920;2023-04-25T00:30:53;8.77;;;2.80;;
3601;SDS011;1815;50.950;6.920;2023-04-25T00:33:19;4.97;;;3.07;;
3601;SDS011;1815;50.950;6.920;2023-04-25T00:35:44;7.40;;;3.33;;
3601;SDS011;1815;50.950;6.920;2023-04-25T00:38:10;6.53;;;2.53;;
3601;SDS011;1815;50.950;6.920;2023-04-25T00:40:36;8.60;;;3.60;;
3601;SDS011;1815;50.950;6.920;2023-04-25T00:43:01;6.37;;;2.40;;
3601;SDS011;1815;50.950;6.920;2023-04-25T00:45:28;7.67;;;3.40;;
3601;SDS011;1815;50.950;6.920;2023-04-25T00:47:57;8.75;;;4.22;;
3601;SDS011;1815;50.950;6.920;2023-04-25T00:50:24;4.80;;;3.90;;
3601;SDS011;1815;50.950;6.920;2023-04-25T00:52:49;9.27;;;4.00;;
3601;SDS011;1815;50.950;6.920;2023-04-25T00:55:16;6.10;;;2.95;;
3601;SDS011;1815;50.950;6.920;2023-04-25T00:57:42;10.93;;;3.40;;
3601;SDS011;1815;50.950;6.920;2023-04-25T01:00:08;4.93;;;2.70;;
3601;SDS011;1815;50.950;6.920;2023-04-25T01:02:36;6.97;;;2.88;;
3601;SDS011;1815;50.950;6.920;2023-04-25T01:05:22;5.45;;;3.25;;
3601;SDS011;1815;50.950;6.920;2023-04-25T01:07:48;13.25;;;4.07;;
3601;SDS011;1815;50.950;6.920;2023-04-25T01:10:14;4.17;;;3.03;;
3601;SDS011;1815;50.950;6.920;2023-04-25T01:12:40;6.20;;;2.92;;
3601;SDS011;1815;50.950;6.920;2023-04-25T01:15:07;5.72;;;3.50;;
3601;SDS011;1815;50.950;6.920;2023-04-25T01:17:34;5.97;;;3.93;;
3601;SDS011;1815;50.950;6.920;2023-04-25T01:20:02;7.70;;;3.15;;
3601;SDS011;1815;50.950;6.920;2023-04-25T01:22:29;6.30;;;2.80;;
3601;SDS011;1815;50.950;6.920;2023-04-25T01:24:56;8.10;;;3.05;;
3601;SDS011;1815;50.950;6.920;2023-04-25T01:27:22;8.48;;;3.75;;
3601;SDS011;1815;50.950;6.920;2023-04-25T01:29:48;9.40;;;5.78;;
3601;SDS011;1815;50.950;6.920;2023-04-25T01:32:15;4.88;;;3.15;;
3601;SDS011;1815;50.950;6.920;2023-04-25T01:34:41;12.07;;;3.83;;
3601;SDS011;1815;50.950;6.920;2023-04-25T01:37:07;6.53;;;2.50;;
3601;SDS011;1815;50.950;6.920;2023-04-25T01:39:33;8.07;;;3.23;;
3601;SDS011;1815;50.950;6.920;2023-04-25T01:41:59;6.10;;;2.93;;
3601;SDS011;1815;50.950;6.920;2023-04-25T01:44:25;8.38;;;2.72;;
3601;SDS011;1815;50.950;6.920;2023-04-25T01:46:51;11.80;;;3.67;;
3601;SDS011;1815;50.950;6.920;2023-04-25T01:49:17;11.13;;;3.00;;
3601;SDS011;1815;50.950;6.920;2023-04-25T01:51:43;5.78;;;2.80;;
3601;SDS011;1815;50.950;6.920;2023-04-25T01:54:09;6.90;;;3.25;;
3601;SDS011;1815;50.950;6.920;2023-04-25T01:56:36;6.25;;;3.28;;
3601;SDS011;1815;50.950;6.920;2023-04-25T01:59:04;5.68;;;2.80;;
3601;SDS011;1815;50.950;6.920;2023-04-25T02:01:50;5.25;;;2.80;;
3601;SDS011;1815;50.950;6.920;2023-04-25T02:04:23;8.50;;;3.00;;
3601;SDS011;1815;50.950;6.920;2023-04-25T02:06:50;7.95;;;3.83;;
3601;SDS011;1815;50.950;6.920;2023-04-25T02:09:16;6.20;;;2.83;;
3601;SDS011;1815;50.950;6.920;2023-04-25T02:11:50;4.45;;;2.35;;
3601;SDS011;1815;50.950;6.920;2023-04-25T02:14:26;9.13;;;3.25;;
3601;SDS011;1815;50.950;6.920;2023-04-25T02:17:02;7.68;;;3.13;;
3601;SDS011;1815;50.950;6.920;2023-04-25T02:19:29;9.32;;;3.20;;
3601;SDS011;1815;50.950;6.920;2023-04-25T02:21:55;5.47;;;2.40;;
3601;SDS011;1815;50.950;6.920;2023-04-25T02:24:22;5.47;;;2.50;;
3601;SDS011;1815;50.950;6.920;2023-04-25T02:26:48;11.87;;;2.57;;
3601;SDS011;1815;50.950;6.920;2023-04-25T02:29:15;6.47;;;2.90;;
3601;SDS011;1815;50.950;6.920;2023-04-25T02:31:41;10.48;;;2.70;;
3601;SDS011;1815;50.950;6.920;2023-04-25T02:34:07;5.72;;;2.67;;
3601;SDS011;1815;50.950;6.920;2023-04-25T02:36:35;5.45;;;2.83;;
3601;SDS011;1815;50.950;6.920;2023-04-25T02:39:01;4.47;;;2.73;;
3601;SDS011;1815;50.950;6.920;2023-04-25T02:41:28;5.53;;;2.75;;
3601;SDS011;1815;50.950;6.920;2023-04-25T02:43:54;5.47;;;2.05;;
3601;SDS011;1815;50.950;6.920;2023-04-25T02:46:20;4.40;;;2.73;;
3601;SDS011;1815;50.950;6.920;2023-04-25T02:48:45;6.63;;;2.40;;
3601;SDS011;1815;50.950;6.920;2023-04-25T02:51:11;5.30;;;3.20;;
3601;SDS011;1815;50.950;6.920;2023-04-25T02:53:37;5.82;;;2.47;;
3601;SDS011;1815;50.950;6.920;2023-04-25T02:56:03;6.67;;;2.50;;
3601;SDS011;1815;50.950;6.920;2023-04-25T02:58:30;5.45;;;2.28;;
3601;SDS011;1815;50.950;6.920;2023-04-25T03:00:56;5.13;;;2.93;;
3601;SDS011;1815;50.950;6.920;2023-04-25T03:03:21;5.10;;;2.27;;
3601;SDS011;1815;50.950;6.920;2023-04-25T03:05:48;8.90;;;2.70;;
3601;SDS011;1815;50.950;6.920;2023-04-25T03:08:18;4.45;;;2.40;;
3601;SDS011;1815;50.950;6.920;2023-04-25T03:10:44;4.50;;;2.40;;
3601;SDS011;1815;50.950;6.920;2023-04-25T03:13:10;7.47;;;2.63;;
3601;SDS011;1815;50.950;6.920;2023-04-25T03:15:37;5.70;;;3.53;;
3601;SDS011;1815;50.950;6.920;2023-04-25T03:18:06;8.18;;;3.05;;
3601;SDS011;1815;50.950;6.920;2023-04-25T03:20:31;6.65;;;2.65;;
3601;SDS011;1815;50.950;6.920;2023-04-25T03:22:57;4.50;;;2.40;;
3601;SDS011;1815;50.950;6.920;2023-04-25T03:25:23;3.57;;;2.20;;
3601;SDS011;1815;50.950;6.920;2023-04-25T03:27:49;7.47;;;2.53;;
3601;SDS011;1815;50.950;6.920;2023-04-25T03:30:14;4.10;;;2.40;;
3601;SDS011;1815;50.950;6.920;2023-04-25T03:32:42;7.35;;;3.30;;
3601;SDS011;1815;50.950;6.920;2023-04-25T03:35:08;8.13;;;2.53;;
3601;SDS011;1815;50.950;6.920;2023-04-25T03:37:34;8.77;;;4.20;;
3601;SDS011;1815;50.950;6.920;2023-04-25T03:40:00;9.57;;;3.15;;
3601;SDS011;1815;50.950;6.920;2023-04-25T03:42:42;7.88;;;2.78;;
3601;SDS011;1815;50.950;6.920;2023-04-25T03:45:08;14.33;;;3.73;;
3601;SDS011;1815;50.950;6.920;2023-04-25T03:47:34;6.27;;;3.50;;
3601;SDS011;1815;50.950;6.920;2023-04-25T03:49:59;7.90;;;3.40;;
3601;SDS011;1815;50.950;6.920;2023-04-25T03:52:27;5.95;;;3.47;;
3601;SDS011;1815;50.950;6.920;2023-04-25T03:54:53;6.37;;;2.43;;
3601;SDS011;1815;50.950;6.920;2023-04-25T03:57:21;7.85;;;2.85;;
3601;SDS011;1815;50.950;6.920;2023-04-25T03:59:46;8.50;;;3.33;;
3601;SDS011;1815;50.950;6.920;2023-04-25T04:02:13;4.95;;;2.80;;
3601;SDS011;1815;50.950;6.920;2023-04-25T04:04:40;8.02;;;3.30;;
3601;SDS011;1815;50.950;6.920;2023-04-25T04:07:06;7.83;;;3.17;;
3601;SDS011;1815;50.950;6.920;2023-04-25T04:09:36;4.57;;;3.20;;
3601;SDS011;1815;50.950;6.920;2023-04-25T04:12:06;6.57;;;2.90;;
3601;SDS011;1815;50.950;6.920;2023-04-25T04:14:33;9.15;;;3.42;;
3601;SDS011;1815;50.950;6.920;2023-04-25T04:16:59;7.23;;;2.53;;
3601;SDS011;1815;50.950;6.920;2023-04-25T04:19:25;5.20;;;2.65;;
3601;SDS011;1815;50.950;6.920;2023-04-25T04:22:02;4.55;;;3.30;;
3601;SDS011;1815;50.950;6.920;2023-04-25T04:24:28;8.83;;;3.20;;
3601;SDS011;1815;50.950;6.920;2023-04-25T04:27:03;8.68;;;3.90;;
3601;SDS011;1815;50.950;6.920;2023-04-25T04:29:35;7.93;;;2.88;;
3601;SDS011;1815;50.950;6.920;2023-04-25T04:32:14;10.32;;;3.00;;
3601;SDS011;1815;50.950;6.920;2023-04-25T04:34:41;7.82;;;3.08;;
3601;SDS011;1815;50.950;6.920;2023-04-25T04:37:07;7.55;;;2.95;;
3601;SDS011;1815;50.950;6.920;2023-04-25T04:39:34;7.00;;;3.28;;
3601;SDS011;1815;50.950;6.920;2023-04-25T04:42:06;6.50;;;2.15;;
3601;SDS011;1815;50.950;6.920;2023-04-25T04:45:02;8.00;;;2.80;;
3601;SDS011;1815;50.950;6.920;2023-04-25T04:47:58;3.97;;;2.22;;
3601;SDS011;1815;50.950;6.920;2023-04-25T04:50:43;11.95;;;2.90;;
3601;SDS011;1815;50.950;6.920;2023-04-25T04:53:16;8.48;;;2.80;;
3601;SDS011;1815;50.950;6.920;2023-04-25T04:56:12;9.52;;;3.30;;
3601;SDS011;1815;50.950;6.920;2023-04-25T04:58:44;8.43;;;3.30;;
3601;SDS011;1815;50.950;6.920;2023-04-25T05:01:21;8.48;;;3.83;;
3601;SDS011;1815;50.950;6.920;2023-04-25T05:04:02;6.47;;;3.55;;
3601;SDS011;1815;50.950;6.920;2023-04-25T05:06:47;5.72;;;2.70;;
3601;SDS011;1815;50.950;6.920;2023-04-25T05:09:14;7.97;;;4.03;;
3601;SDS011;1815;50.950;6.920;2023-04-25T05:12:04;6.55;;;3.55;;
3601;SDS011;1815;50.950;6.920;2023-04-25T05:14:56;10.10;;;3.97;;
3601;SDS011;1815;50.950;6.920;2023-04-25T05:17:53;7.47;;;3.10;;
3601;SDS011;1815;50.950;6.920;2023-04-25T05:20:37;7.95;;;2.85;;
3601;SDS011;1815;50.950;6.920;2023-04-25T05:23:21;11.73;;;3.78;;
3601;SDS011;1815;50.950;6.920;2023-04-25T05:25:59;6.35;;;3.40;;
3601;SDS011;1815;50.950;6.920;2023-04-25T05:28:45;7.43;;;2.88;;
3601;SDS011;1815;50.950;6.920;2023-04-25T05:31:28;10.57;;;3.92;;
3601;SDS011;1815;50.950;6.920;2023-04-25T05:34:00;10.05;;;3.65;;
3601;SDS011;1815;50.950;6.920;2023-04-25T05:36:38;5.50;;;3.28;;
3601;SDS011;1815;50.950;6.920;2023-04-25T05:39:03;8.03;;;3.47;;
3601;SDS011;1815;50.950;6.920;2023-04-25T05:41:48;7.85;;;3.50;;
3601;SDS011;1815;50.950;6.920;2023-04-25T05:44:38;10.02;;;2.63;;
3601;SDS011;1815;50.950;6.920;2023-04-25T05:47:32;6.10;;;3.22;;
3601;SDS011;1815;50.950;6.920;2023-04-25T05:50:18;12.52;;;3.40;;
3601;SDS011;1815;50.950;6.920;2023-04-25T05:52:53;9.60;;;3.55;;
3601;SDS011;1815;50.950;6.920;2023-04-25T05:55:24;13.40;;;3.90;;
3601;SDS011;1815;50.950;6.920;2023-04-25T05:57:50;8.52;;;3.65;;
3601;SDS011;1815;50.950;6.920;2023-04-25T06:00:16;5.60;;;2.78;;
3601;SDS011;1815;50.950;6.920;2023-04-25T06:02:48;5.57;;;2.35;;
3601;SDS011;1815;50.950;6.920;2023-04-25T06:05:14;5.90;;;2.65;;
3601;SDS011;1815;50.950;6.920;2023-04-25T06:07:39;9.80;;;3.20;;
3601;SDS011;1815;50.950;6.920;2023-04-25T06:10:05;9.40;;;3.80;;
3601;SDS011;1815;50.950;6.920;2023-04-25T06:12:32;8.35;;;3.22;;
3601;SDS011;1815;50.950;6.920;2023-04-25T06:14:59;8.68;;;2.90;;
3601;SDS011;1815;50.950;6.920;2023-04-25T06:17:26;11.40;;;3.28;;
3601;SDS011;1815;50.950;6.920;2023-04-25T06:19:54;5.20;;;2.53;;
3601;SDS011;1815;50.950;6.920;2023-04-25T06:22:20;7.23;;;2.90;;
3601;SDS011;1815;50.950;6.920;2023-04-25T06:24:46;7.43;;;2.50;;
3601;SDS011;1815;50.950;6.920;2023-04-25T06:27:11;8.63;;;2.70;;
3601;SDS011;1815;50.950;6.920;2023-04-25T06:29:38;10.95;;;3.10;;
3601;SDS011;1815;50.950;6.920;2023-04-25T06:32:04;12.00;;;4.27;;
3601;SDS011;1815;50.950;6.920;2023-04-25T06:34:30;8.73;;;2.40;;
3601;SDS011;1815;50.950;6.920;2023-04-25T06:36:56;7.35;;;2.67;;
3601;SDS011;1815;50.950;6.920;2023-04-25T06:39:22;6.87;;;3.10;;
3601;SDS011;1815;50.950;6.920;2023-04-25T06:41:49;7.45;;;3.00;;
3601;SDS011;1815;50.950;6.920;2023-04-25T06:44:39;10.80;;;2.80;;
3601;SDS011;1815;50.950;6.920;2023-04-25T06:47:07;8.45;;;2.92;;
3601;SDS011;1815;50.950;6.920;2023-04-25T06:49:32;11.70;;;2.70;;
3601;SDS011;1815;50.950;6.920;2023-04-25T06:51:59;8.17;;;2.20;;
3601;SDS011;1815;50.950;6.920;2023-04-25T06:54:24;7.37;;;2.40;;
3601;SDS011;1815;50.950;6.920;2023-04-25T06:56:59;8.40;;;1.97;;
3601;SDS011;1815;50.950;6.920;2023-04-25T06:59:27;6.60;;;3.70;;
3601;SDS011;1815;50.950;6.920;2023-04-25T07:01:52;6.07;;;2.10;;
3601;SDS011;1815;50.950;6.920;2023-04-25T07:04:23;9.43;;;2.07;;
3601;SDS011;1815;50.950;6.920;2023-04-25T07:06:53;6.13;;;2.27;;
3601;SDS011;1815;50.950;6.920;2023-04-25T07:09:26;7.03;;;1.97;;
3601;SDS011;1815;50.950;6.920;2023-04-25T07:11:53;5.63;;;2.00;;
3601;SDS011;1815;50.950;6.920;2023-04-25T07:14:19;6.60;;;1.70;;
3601;SDS011;1815;50.950;6.920;2023-04-25T07:16:45;5.30;;;1.80;;
3601;SDS011;1815;50.950;6.920;2023-04-25T07:19:12;6.77;;;1.87;;
3601;SDS011;1815;50.950;6.920;2023-04-25T07:21:38;5.47;;;2.03;;
3601;SDS011;1815;50.950;6.920;2023-04-25T07:24:05;5.57;;;1.60;;
3601;SDS011;1815;50.950;6.920;2023-04-25T07:26:34;10.27;;;1.93;;
3601;SDS011;1815;50.950;6.920;2023-04-25T07:29:14;9.93;;;2.13;;
3601;SDS011;1815;50.950;6.920;2023-04-25T07:31:40;6.93;;;2.00;;
3601;SDS011;1815;50.950;6.920;2023-04-25T07:34:05;5.30;;;1.80;;
3601;SDS011;1815;50.950;6.920;2023-04-25T07:36:31;7.67;;;1.30;;
3601;SDS011;1815;50.950;6.920;2023-04-25T07:38:57;8.73;;;2.67;;
3601;SDS011;1815;50.950;6.920;2023-04-25T07:41:23;6.10;;;1.23;;
3601;SDS011;1815;50.950;6.920;2023-04-25T07:43:49;7.40;;;2.40;;
3601;SDS011;1815;50.950;6.920;2023-04-25T07:46:16;7.17;;;2.80;;
3601;SDS011;1815;50.950;6.920;2023-04-25T07:48:42;6.27;;;2.07;;
3601;SDS011;1815;50.950;6.920;2023-04-25T07:51:07;5.03;;;2.03;;
3601;SDS011;1815;50.950;6.920;2023-04-25T07:53:35;8.60;;;2.00;;
3601;SDS011;1815;50.950;6.920;2023-04-25T07:56:06;5.77;;;2.00;;
3601;SDS011;1815;50.950;6.920;2023-04-25T07:58:35;5.53;;;1.93;;
3601;SDS011;1815;50.950;6.920;2023-04-25T08:01:03;6.73;;;2.10;;
3601;SDS011;1815;50.950;6.920;2023-04-25T08:03:42;6.80;;;1.93;;
3601;SDS011;1815;50.950;6.920;2023-04-25T08:06:15;5.30;;;1.90;;
3601;SDS011;1815;50.950;6.920;2023-04-25T08:08:53;9.10;;;1.90;;
3601;SDS011;1815;50.950;6.920;2023-04-25T08:11:23;6.80;;;1.90;;
3601;SDS011;1815;50.950;6.920;2023-04-25T08:13:49;7.80;;;1.47;;
3601;SDS011;1815;50.950;6.920;2023-04-25T08:16:15;8.07;;;1.50;;
3601;SDS011;1815;50.950;6.920;2023-04-25T08:18:41;5.70;;;1.47;;
3601;SDS011;1815;50.950;6.920;2023-04-25T08:21:08;6.10;;;1.70;;
3601;SDS011;1815;50.950;6.920;2023-04-25T08:23:37;8.30;;;2.07;;
3601;SDS011;1815;50.950;6.920;2023-04-25T08:26:09;4.57;;;1.47;;
3601;SDS011;1815;50.950;6.920;2023-04-25T08:28:37;4.93;;;1.40;;
3601;SDS011;1815;50.950;6.920;2023-04-25T08:31:03;4.67;;;1.37;;
3601;SDS011;1815;50.950;6.920;2023-04-25T08:33:37;4.97;;;1.40;;
3601;SDS011;1815;50.950;6.920;2023-04-25T08:36:19;6.20;;;1.30;;
3601;SDS011;1815;50.950;6.920;2023-04-25T08:38:45;3.33;;;0.93;;
3601;SDS011;1815;50.950;6.920;2023-04-25T08:41:12;6.33;;;1.40;;
3601;SDS011;1815;50.950;6.920;2023-04-25T08:43:39;6.30;;;1.50;;
3601;SDS011;1815;50.950;6.920;2023-04-25T08:46:08;5.70;;;1.50;;
3601;SDS011;1815;50.950;6.920;2023-04-25T08:48:50;3.93;;;1.17;;
3601;SDS011;1815;50.950;6.920;2023-04-25T08:51:21;4.73;;;1.30;;
3601;SDS011;1815;50.950;6.920;2023-04-25T08:53:51;5.07;;;1.20;;
3601;SDS011;1815;50.950;6.920;2023-04-25T08:56:18;3.90;;;1.10;;
3601;SDS011;1815;50.950;6.920;2023-04-25T08:58:47;4.03;;;1.20;;
3601;SDS011;1815;50.950;6.920;2023-04-25T09:01:16;5.57;;;1.47;;
3601;SDS011;1815;50.950;6.920;2023-04-25T09:03:48;6.23;;;1.30;;
3601;SDS011;1815;50.950;6.920;2023-04-25T09:06:14;3.87;;;1.20;;
3601;SDS011;1815;50.950;6.920;2023-04-25T09:08:41;7.17;;;1.50;;
3601;SDS011;1815;50.950;6.920;2023-04-25T09:11:07;5.53;;;1.47;;
3601;SDS011;1815;50.950;6.920;2023-04-25T09:13:33;5.20;;;1.60;;
3601;SDS011;1815;50.950;6.920;2023-04-25T09:16:18;6.20;;;1.10;;
3601;SDS011;1815;50.950;6.920;2023-04-25T09:19:29;5.77;;;1.40;;
3601;SDS011;1815;50.950;6.920;2023-04-25T09:22:01;4.40;;;1.30;;
3601;SDS011;1815;50.950;6.920;2023-04-25T09:27:02;2.73;;;1.10;;
3601;SDS011;1815;50.950;6.920;2023-04-25T09:29:32;5.77;;;1.50;;
3601;SDS011;1815;50.950;6.920;2023-04-25T09:34:50;5.97;;;1.10;;
3601;SDS011;1815;50.950;6.920;2023-04-25T09:37:19;3.30;;;0.90;;
3601;SDS011;1815;50.950;6.920;2023-04-25T09:40:12;4.30;;;1.10;;
3601;SDS011;1815;50.950;6.920;2023-04-25T09:42:50;4.00;;;1.40;;
3601;SDS011;1815;50.950;6.920;2023-04-25T09:45:16;4.27;;;1.57;;
3601;SDS011;1815;50.950;6.920;2023-04-25T09:47:43;5.27;;;1.53;;
3601;SDS011;1815;50.950;6.920;2023-04-25T09:50:14;7.03;;;1.10;;
3601;SDS011;1815;50.950;6.920;2023-04-25T09:52:45;3.70;;;1.37;;
3601;SDS011;1815;50.950;6.920;2023-04-25T09:55:16;6.93;;;1.50;;
3601;SDS011;1815;50.950;6.920;2023-04-25T09:57:43;5.20;;;1.57;;
3601;SDS011;1815;50.950;6.920;2023-04-25T10:00:15;5.67;;;1.33;;
3601;SDS011;1815;50.950;6.920;2023-04-25T10:02:42;7.03;;;1.50;;
3601;SDS011;1815;50.950;6.920;2023-04-25T10:05:35;3.97;;;1.07;;
3601;SDS011;1815;50.950;6.920;2023-04-25T10:08:02;4.50;;;1.20;;
3601;SDS011;1815;50.950;6.920;2023-04-25T10:10:31;4.10;;;1.40;;
3601;SDS011;1815;50.950;6.920;2023-04-25T10:13:02;5.17;;;1.37;;
3601;SDS011;1815;50.950;6.920;2023-04-25T10:15:28;3.67;;;1.20;;
3601;SDS011;1815;50.950;6.920;2023-04-25T10:17:55;5.43;;;1.30;;
3601;SDS011;1815;50.950;6.920;2023-04-25T10:20:22;5.60;;;1.40;;
3601;SDS011;1815;50.950;6.920;2023-04-25T10:22:48;7.83;;;3.03;;
3601;SDS011;1815;50.950;6.920;2023-04-25T10:25:19;3.80;;;1.83;;
3601;SDS011;1815;50.950;6.920;2023-04-25T10:27:45;7.83;;;1.70;;
3601;SDS011;1815;50.950;6.920;2023-04-25T10:30:13;6.60;;;2.07;;
3601;SDS011;1815;50.950;6.920;2023-04-25T10:32:41;5.25;;;1.38;;
3601;SDS011;1815;50.950;6.920;2023-04-25T10:35:11;5.10;;;1.03;;
3601;SDS011;1815;50.950;6.920;2023-04-25T10:38:02;4.80;;;1.13;;
3601;SDS011;1815;50.950;6.920;2023-04-25T10:40:29;6.77;;;1.50;;
3601;SDS011;1815;50.950;6.920;2023-04-25T10:42:56;6.40;;;1.37;;
3601;SDS011;1815;50.950;6.920;2023-04-25T10:46:01;5.70;;;1.30;;
3601;SDS011;1815;50.950;6.920;2023-04-25T10:48:31;4.07;;;0.97;;
3601;SDS011;1815;50.950;6.920;2023-04-25T10:51:09;5.03;;;1.40;;
3601;SDS011;1815;50.950;6.920;2023-04-25T10:53:36;6.50;;;1.77;;
3601;SDS011;1815;50.950;6.920;2023-04-25T10:56:13;3.67;;;1.07;;
3601;SDS011;1815;50.950;6.920;2023-04-25T10:58:43;6.50;;;1.10;;
3601;SDS011;1815;50.950;6.920;2023-04-25T11:01:10;5.83;;;1.97;;
3601;SDS011;1815;50.950;6.920;2023-04-25T11:03:40;3.40;;;0.90;;
3601;SDS011;1815;50.950;6.920;2023-04-25T11:06:15;5.73;;;1.03;;
3601;SDS011;1815;50.950;6.920;2023-04-25T11:08:49;3.00;;;1.07;;
3601;SDS011;1815;50.950;6.920;2023-04-25T11:11:16;3.50;;;1.13;;
3601;SDS011;1815;50.950;6.920;2023-04-25T11:13:43;3.87;;;0.90;;
3601;SDS011;1815;50.950;6.920;2023-04-25T11:16:10;5.60;;;1.00;;
3601;SDS011;1815;50.950;6.920;2023-04-25T11:18:35;3.00;;;1.20;;
3601;SDS011;1815;50.950;6.920;2023-04-25T11:21:04;2.67;;;0.80;;
3601;SDS011;1815;50.950;6.920;2023-04-25T11:23:30;2.13;;;0.70;;
3601;SDS011;1815;50.950;6.920;2023-04-25T11:25:56;4.33;;;1.13;;
3601;SDS011;1815;50.950;6.920;2023-04-25T11:28:22;6.03;;;1.50;;
3601;SDS011;1815;50.950;6.920;2023-04-25T11:30:48;7.20;;;1.77;;
3601;SDS011;1815;50.950;6.920;2023-04-25T11:33:15;5.83;;;1.50;;
3601;SDS011;1815;50.950;6.920;2023-04-25T11:35:42;5.23;;;1.30;;
3601;SDS011;1815;50.950;6.920;2023-04-25T11:38:08;3.13;;;0.90;;
3601;SDS011;1815;50.950;6.920;2023-04-25T11:40:35;4.70;;;1.10;;
3601;SDS011;1815;50.950;6.920;2023-04-25T11:43:01;2.90;;;1.10;;
3601;SDS011;1815;50.950;6.920;2023-04-25T11:45:28;4.60;;;1.20;;
3601;SDS011;1815;50.950;6.920;2023-04-25T11:47:55;3.80;;;1.07;;
3601;SDS011;1815;50.950;6.920;2023-04-25T11:50:21;3.60;;;0.80;;
3601;SDS011;1815;50.950;6.920;2023-04-25T11:52:47;5.40;;;0.90;;
3601;SDS011;1815;50.950;6.920;2023-04-25T11:55:17;2.87;;;0.80;;
3601;SDS011;1815;50.950;6.920;2023-04-25T11:57:45;3.90;;;1.00;;
3601;SDS011;1815;50.950;6.920;2023-04-25T12:02:43;2.33;;;0.90;;
3601;SDS011;1815;50.950;6.920;2023-04-25T12:05:11;2.67;;;0.77;;
3601;SDS011;1815;50.950;6.920;2023-04-25T12:07:38;4.57;;;0.80;;
3601;SDS011;1815;50.950;6.920;2023-04-25T12:10:05;3.10;;;0.80;;
3601;SDS011;1815;50.950;6.920;2023-04-25T12:12:36;3.30;;;0.70;;
3601;SDS011;1815;50.950;6.920;2023-04-25T12:17:50;3.57;;;1.40;;
3601;SDS011;1815;50.950;6.920;2023-04-25T12:20:18;2.83;;;0.90;;
3601;SDS011;1815;50.950;6.920;2023-04-25T12:22:47;2.63;;;0.70;;
3601;SDS011;1815;50.950;6.920;2023-04-25T12:25:33;4.50;;;1.00;;
3601;SDS011;1815;50.950;6.920;2023-04-25T12:28:10;3.13;;;1.00;;
3601;SDS011;1815;50.950;6.920;2023-04-25T12:31:03;3.00;;;0.90;;
3601;SDS011;1815;50.950;6.920;2023-04-25T12:33:36;2.40;;;0.90;;
3601;SDS011;1815;50.950;6.920;2023-04-25T12:36:03;1.80;;;0.90;;
3601;SDS011;1815;50.950;6.920;2023-04-25T12:38:37;2.83;;;1.00;;
3601;SDS011;1815;50.950;6.920;2023-04-25T12:41:05;4.60;;;0.90;;
3601;SDS011;1815;50.950;6.920;2023-04-25T12:43:31;3.23;;;0.90;;
3601;SDS011;1815;50.950;6.920;2023-04-25T12:45:57;3.43;;;0.80;;
3601;SDS011;1815;50.950;6.920;2023-04-25T12:48:23;2.33;;;0.87;;
3601;SDS011;1815;50.950;6.920;2023-04-25T12:50:49;2.80;;;0.80;;
3601;SDS011;1815;50.950;6.920;2023-04-25T12:53:17;2.03;;;0.70;;
3601;SDS011;1815;50.950;6.920;2023-04-25T12:55:48;1.70;;;0.70;;
3601;SDS011;1815;50.950;6.920;2023-04-25T12:58:14;2.70;;;0.90;;
3601;SDS011;1815;50.950;6.920;2023-04-25T13:00:40;4.93;;;1.20;;
3601;SDS011;1815;50.950;6.920;2023-04-25T13:03:07;3.83;;;1.00;;
3601;SDS011;1815;50.950;6.920;2023-04-25T13:05:34;5.63;;;1.00;;
3601;SDS011;1815;50.950;6.920;2023-04-25T13:07:59;3.90;;;0.83;;
3601;SDS011;1815;50.950;6.920;2023-04-25T13:10:26;3.93;;;0.90;;
3601;SDS011;1815;50.950;6.920;2023-04-25T13:12:52;2.67;;;0.90;;
3601;SDS011;1815;50.950;6.920;2023-04-25T13:15:18;4.07;;;0.90;;
3601;SDS011;1815;50.950;6.920;2023-04-25T13:17:44;2.93;;;1.03;;
3601;SDS011;1815;50.950;6.920;2023-04-25T13:20:10;2.47;;;0.83;;
3601;SDS011;1815;50.950;6.920;2023-04-25T13:22:39;2.97;;;0.80;;
3601;SDS011;1815;50.950;6.920;2023-04-25T13:25:07;3.00;;;0.70;;
3601;SDS011;1815;50.950;6.920;2023-04-25T13:27:33;2.40;;;1.00;;
3601;SDS011;1815;50.950;6.920;2023-04-25T13:30:01;4.30;;;0.80;;
3601;SDS011;1815;50.950;6.920;2023-04-25T13:32:32;2.33;;;0.70;;
3601;SDS011;1815;50.950;6.920;2023-04-25T13:35:02;2.23;;;0.80;;
3601;SDS011;1815;50.950;6.920;2023-04-25T13:37:32;3.00;;;0.80;;
3601;SDS011;1815;50.950;6.920;2023-04-25T13:40:01;2.43;;;0.70;;
3601;SDS011;1815;50.950;6.920;2023-04-25T13:42:33;5.40;;;0.80;;
3601;SDS011;1815;50.950;6.920;2023-04-25T13:45:00;2.90;;;0.80;;
3601;SDS011;1815;50.950;6.920;2023-04-25T13:47:26;2.03;;;0.80;;
3601;SDS011;1815;50.950;6.920;2023-04-25T13:49:52;9.20;;;0.90;;
3601;SDS011;1815;50.950;6.920;2023-04-25T13:52:18;2.17;;;0.80;;
3601;SDS011;1815;50.950;6.920;2023-04-25T13:54:44;2.47;;;0.90;;
3601;SDS011;1815;50.950;6.920;2023-04-25T13:57:10;2.30;;;0.90;;
3601;SDS011;1815;50.950;6.920;2023-04-25T13:59:36;2.23;;;0.80;;
3601;SDS011;1815;50.950;6.920;2023-04-25T14:02:02;4.63;;;1.00;;
3601;SDS011;1815;50.950;6.920;2023-04-25T14:04:28;4.37;;;0.90;;
3601;SDS011;1815;50.950;6.920;2023-04-25T14:06:55;2.03;;;0.80;;
3601;SDS011;1815;50.950;6.920;2023-04-25T14:09:21;3.37;;;1.10;;
3601;SDS011;1815;50.950;6.920;2023-04-25T14:11:53;7.73;;;0.90;;
3601;SDS011;1815;50.950;6.920;2023-04-25T14:14:20;3.17;;;0.70;;
3601;SDS011;1815;50.950;6.920;2023-04-25T14:16:47;2.10;;;0.90;;
3601;SDS011;1815;50.950;6.920;2023-04-25T14:19:13;5.63;;;0.90;;
3601;SDS011;1815;50.950;6.920;2023-04-25T14:21:40;4.70;;;1.50;;
3601;SDS011;1815;50.950;6.920;2023-04-25T14:24:06;3.20;;;0.80;;
3601;SDS011;1815;50.950;6.920;2023-04-25T14:26:35;3.23;;;1.00;;
3601;SDS011;1815;50.950;6.920;2023-04-25T14:29:02;2.07;;;0.80;;
3601;SDS011;1815;50.950;6.920;2023-04-25T14:31:32;2.47;;;0.70;;
3601;SDS011;1815;50.950;6.920;2023-04-25T14:33:58;3.07;;;1.13;;
3601;SDS011;1815;50.950;6.920;2023-04-25T14:36:25;4.50;;;0.80;;
3601;SDS011;1815;50.950;6.920;2023-04-25T14:38:51;1.73;;;0.60;;
3601;SDS011;1815;50.950;6.920;2023-04-25T14:41:17;2.60;;;0.63;;
3601;SDS011;1815;50.950;6.920;2023-04-25T14:43:43;2.70;;;0.60;;
3601;SDS011;1815;50.950;6.920;2023-04-25T14:46:10;2.47;;;0.50;;
3601;SDS011;1815;50.950;6.920;2023-04-25T14:48:36;3.03;;;0.70;;
3601;SDS011;1815;50.950;6.920;2023-04-25T14:51:01;1.77;;;0.80;;
3601;SDS011;1815;50.950;6.920;2023-04-25T14:53:27;4.67;;;0.70;;
3601;SDS011;1815;50.950;6.920;2023-04-25T14:55:53;2.40;;;0.77;;
3601;SDS011;1815;50.950;6.920;2023-04-25T14:58:19;3.10;;;0.70;;
3601;SDS011;1815;50.950;6.920;2023-04-25T15:00:45;2.37;;;0.80;;
3601;SDS011;1815;50.950;6.920;2023-04-25T15:03:12;1.70;;;0.80;;
3601;SDS011;1815;50.950;6.920;2023-04-25T15:05:41;3.13;;;0.70;;
3601;SDS011;1815;50.950;6.920;2023-04-25T15:08:07;2.37;;;0.60;;
3601;SDS011;1815;50.950;6.920;2023-04-25T15:10:33;2.03;;;0.80;;
3601;SDS011;1815;50.950;6.920;2023-04-25T15:12:59;2.37;;;0.70;;
3601;SDS011;1815;50.950;6.920;2023-04-25T15:15:25;4.67;;;1.13;;
3601;SDS011;1815;50.950;6.920;2023-04-25T15:17:51;1.80;;;0.70;;
3601;SDS011;1815;50.950;6.920;2023-04-25T15:20:18;5.87;;;1.10;;
3601;SDS011;1815;50.950;6.920;2023-04-25T15:22:44;1.50;;;1.03;;
3601;SDS011;1815;50.950;6.920;2023-04-25T15:25:11;2.40;;;0.73;;
3601;SDS011;1815;50.950;6.920;2023-04-25T15:27:37;2.57;;;0.70;;
3601;SDS011;1815;50.950;6.920;2023-04-25T15:30:07;2.80;;;0.80;;
3601;SDS011;1815;50.950;6.920;2023-04-25T15:32:36;2.80;;;0.90;;
3601;SDS011;1815;50.950;6.920;2023-04-25T15:35:03;2.13;;;0.70;;
3601;SDS011;1815;50.950;6.920;2023-04-25T15:37:30;4.70;;;1.20;;
3601;SDS011;1815;50.950;6.920;2023-04-25T15:40:17;3.77;;;1.70;;